Time;durP1;ratioP1;P1;durP2;ratioP2;P2;SDS_P1;SDS_P2;PMS_P1;PMS_P2;Temp;Humidity;BMP_temperature;BMP_pressure;BME280_temperature;BME280_humidity;BME280_pressure;Samples;Min_cycle;Max_cycle;Signal;HPM_P1;HPM_P2
2023/02/23 00:02:06;;;;;;;19.30;3.43;;;20.60;86.90;;;;;;5072794;28;20638;-70
2023/02/23 00:04:34;;;;;;;15.60;2.80;;;20.40;85.60;;;;;;5069154;28;20239;-70
2023/02/23 00:07:01;;;;;;;16.03;3.33;;;20.50;86.00;;;;;;5071427;28;20222;-70
2023/02/23 00:09:34;;;;;;;12.17;3.00;;;20.80;85.90;;;;;;5069683;28;20226;-70
2023/02/23 00:12:06;;;;;;;17.40;3.50;;;21.00;85.30;;;;;;5071092;28;20196;-70
2023/02/23 00:14:36;;;;;;;20.27;3.40;;;21.10;83.90;;;;;;5074001;28;20564;-71
2023/02/23 00:17:03;;;;;;;17.30;3.23;;;21.30;84.00;;;;;;5072563;28;20187;-70
2023/02/23 00:19:32;;;;;;;13.77;3.10;;;21.50;82.90;;;;;;5066079;28;20632;-69
2023/02/23 00:21:59;;;;;;;16.90;3.30;;;21.60;81.60;;;;;;5073766;28;20191;-69
2023/02/23 00:24:28;;;;;;;20.17;3.03;;;21.80;80.50;;;;;;5070686;28;20186;-69
2023/02/23 00:26:56;;;;;;;11.63;2.40;;;21.80;77.10;;;;;;5074632;28;20197;-70
2023/02/23 00:29:24;;;;;;;15.77;2.80;;;22.00;74.70;;;;;;5072321;28;20219;-69
2023/02/23 00:31:52;;;;;;;16.77;3.13;;;21.90;73.10;;;;;;5069160;28;20192;-70
2023/02/23 00:34:22;;;;;;;16.80;3.57;;;22.00;73.70;;;;;;5069880;28;20537;-70
2023/02/23 00:36:54;;;;;;;19.90;3.17;;;21.70;75.90;;;;;;5071748;28;20213;-71
2023/02/23 00:39:27;;;;;;;12.20;2.40;;;21.40;78.50;;;;;;5064432;28;20202;-70
2023/02/23 00:42:01;;;;;;;13.40;2.73;;;21.20;78.20;;;;;;5069652;28;20190;-69
2023/02/23 00:44:29;;;;;;;16.20;2.63;;;21.20;78.80;;;;;;5066231;28;20230;-70
2023/02/23 00:46:56;;;;;;;8.47;2.20;;;21.30;80.10;;;;;;5067400;28;20201;-70
2023/02/23 00:49:23;;;;;;;14.97;2.73;;;21.50;80.10;;;;;;5065706;28;20199;-70
2023/02/23 00:51:52;;;;;;;15.67;2.90;;;21.70;79.70;;;;;;5065251;28;20537;-71
2023/02/23 00:54:21;;;;;;;12.47;2.73;;;21.70;77.70;;;;;;5071903;28;20183;-71
2023/02/23 00:56:49;;;;;;;20.80;3.53;;;21.90;78.20;;;;;;5067153;28;20179;-71
2023/02/23 00:59:17;;;;;;;21.60;3.23;;;22.10;76.20;;;;;;5070237;28;20638;-71
2023/02/23 01:01:44;;;;;;;14.03;2.60;;;22.40;75.80;;;;;;5071011;28;20198;-71
2023/02/23 01:04:13;;;;;;;16.80;3.10;;;22.60;71.60;;;;;;5070677;28;20235;-72
2023/02/23 01:06:41;;;;;;;16.60;2.93;;;22.80;69.30;;;;;;5071021;28;20187;-73
2023/02/23 01:09:12;;;;;;;16.97;2.77;;;23.10;69.00;;;;;;5069860;28;20229;-72
2023/02/23 01:11:45;;;;;;;10.20;2.40;;;23.30;67.90;;;;;;5072048;28;20187;-72
2023/02/23 01:14:15;;;;;;;13.33;2.17;;;23.60;68.10;;;;;;5071781;28;20210;-72
2023/02/23 01:16:43;;;;;;;15.10;2.67;;;23.70;67.30;;;;;;5068839;28;20199;-73
2023/02/23 01:19:10;;;;;;;13.87;2.50;;;23.80;65.90;;;;;;5067283;28;20545;-71
2023/02/23 01:21:40;;;;;;;11.37;1.97;;;23.90;65.50;;;;;;5071063;28;20203;-71
2023/02/23 01:24:09;;;;;;;16.33;3.17;;;23.80;64.00;;;;;;5071324;28;20267;-71
2023/02/23 01:26:39;;;;;;;16.93;2.80;;;23.60;64.10;;;;;;5068107;28;20179;-72
2023/02/23 01:29:09;;;;;;;13.00;2.60;;;23.40;64.60;;;;;;5070938;28;20211;-71
2023/02/23 01:31:39;;;;;;;16.30;2.57;;;23.20;66.20;;;;;;5069434;28;20187;-71
2023/02/23 01:34:07;;;;;;;9.27;2.17;;;23.10;67.00;;;;;;5068698;28;20182;-71
2023/02/23 01:36:39;;;;;;;15.60;3.07;;;23.10;66.20;;;;;;5068551;28;20175;-70
2023/02/23 01:39:10;;;;;;;15.97;2.73;;;23.00;65.40;;;;;;5069747;28;20540;-70
2023/02/23 01:41:41;;;;;;;19.40;3.30;;;23.10;67.10;;;;;;5068333;28;20205;-70
2023/02/23 01:44:30;;;;;;;15.10;3.10;;;22.90;69.00;;;;;;5071626;28;20183;-71
2023/02/23 01:46:58;;;;;;;16.07;2.70;;;22.80;70.80;;;;;;5064424;28;20179;-70
2023/02/23 01:49:30;;;;;;;14.37;3.13;;;22.70;72.10;;;;;;5069430;28;20605;-70
2023/02/23 01:52:10;;;;;;;12.00;2.77;;;22.50;73.20;;;;;;5068865;28;20889;-70
2023/02/23 01:54:42;;;;;;;14.53;3.13;;;22.50;73.40;;;;;;5061764;28;20640;-70
2023/02/23 01:57:12;;;;;;;9.77;3.00;;;22.50;73.00;;;;;;5063348;28;20188;-70
2023/02/23 01:59:46;;;;;;;14.60;3.27;;;22.50;73.20;;;;;;5064613;28;20180;-70
2023/02/23 02:02:17;;;;;;;13.43;2.50;;;22.50;72.90;;;;;;5065328;28;20622;-71
2023/02/23 02:04:44;;;;;;;16.77;2.40;;;22.70;69.50;;;;;;5072229;28;20238;-71
2023/02/23 02:07:23;;;;;;;11.03;2.43;;;22.80;68.50;;;;;;5070413;28;20218;-71
2023/02/23 02:12:43;;;;;;;11.57;2.43;;;23.20;65.40;;;;;;5069580;28;20649;-70
2023/02/23 02:15:16;;;;;;;12.13;2.80;;;23.10;64.80;;;;;;5069266;28;20175;-69
2023/02/23 02:18:17;;;;;;;8.93;2.50;;;23.30;64.50;;;;;;5070037;28;20195;-68
2023/02/23 02:21:21;;;;;;;10.80;2.10;;;23.30;64.50;;;;;;5064410;28;20237;-70
2023/02/23 02:23:55;;;;;;;12.97;2.50;;;23.40;64.60;;;;;;5066512;28;20266;-68
2023/02/23 02:26:57;;;;;;;12.87;2.60;;;23.10;65.70;;;;;;5067584;28;21360;-70
2023/02/23 02:29:40;;;;;;;14.63;2.60;;;22.90;68.60;;;;;;5066756;28;20209;-77
2023/02/23 02:32:25;;;;;;;12.30;2.80;;;22.60;72.50;;;;;;5068641;28;20183;-77
2023/02/23 02:35:21;;;;;;;17.10;2.30;;;22.40;73.20;;;;;;5070905;28;20241;-75
2023/02/23 02:38:02;;;;;;;12.10;2.40;;;22.60;75.60;;;;;;5068603;28;20179;-71
2023/02/23 02:41:03;;;;;;;9.03;2.57;;;22.60;73.70;;;;;;5072712;28;20187;-72
2023/02/23 02:44:02;;;;;;;12.57;2.47;;;22.70;73.80;;;;;;5058505;28;20199;-70
2023/02/23 02:46:44;;;;;;;13.20;2.63;;;22.40;72.70;;;;;;5070506;28;20183;-71
2023/02/23 02:49:35;;;;;;;10.47;2.37;;;22.40;73.30;;;;;;5068528;28;20244;-71
2023/02/23 02:52:08;;;;;;;11.87;2.10;;;22.40;72.40;;;;;;5063023;28;20178;-71
2023/02/23 02:54:43;;;;;;;13.77;3.00;;;22.40;73.10;;;;;;5065916;28;20175;-69
2023/02/23 02:57:12;;;;;;;14.47;2.70;;;22.50;73.10;;;;;;5070558;28;20265;-71
2023/02/23 04:18:33;;;;;;;15.53;2.67;;;21.90;77.90;;;;;;5076276;28;20223;-72
2023/02/23 04:21:01;;;;;;;12.87;2.90;;;21.90;79.30;;;;;;5076947;28;20225;-71
2023/02/23 04:23:29;;;;;;;13.23;2.57;;;21.90;77.20;;;;;;5076288;28;20209;-73
2023/02/23 04:25:56;;;;;;;14.20;2.97;;;21.90;76.70;;;;;;5075924;28;20178;-73
2023/02/23 04:28:28;;;;;;;13.73;2.53;;;21.90;76.20;;;;;;5070889;28;20214;-73
2023/02/23 04:30:55;;;;;;;7.77;2.27;;;22.10;74.70;;;;;;5077460;28;20211;-72
2023/02/23 04:33:24;;;;;;;15.13;2.80;;;22.20;73.90;;;;;;5073099;28;20266;-73
2023/02/23 04:35:53;;;;;;;15.30;2.60;;;22.30;74.00;;;;;;5069973;28;20238;-74
2023/02/23 04:38:21;;;;;;;9.27;2.17;;;22.30;73.40;;;;;;5073797;28;21520;-72
2023/02/23 04:40:49;;;;;;;11.77;2.37;;;22.30;72.70;;;;;;5073159;28;20665;-72
2023/02/23 04:43:16;;;;;;;8.67;2.00;;;22.30;71.90;;;;;;5072738;28;20175;-72
2023/02/23 04:45:44;;;;;;;12.57;2.40;;;22.30;71.60;;;;;;5071022;28;20175;-73
2023/02/23 04:48:11;;;;;;;12.23;2.30;;;22.50;72.10;;;;;;5060827;28;20176;-72
2023/02/23 04:50:38;;;;;;;14.53;2.47;;;23.00;70.10;;;;;;5071555;28;20692;-72
2023/02/23 04:53:06;;;;;;;17.70;2.33;;;23.40;70.10;;;;;;5072639;28;20248;-71
2023/02/23 04:55:33;;;;;;;13.07;2.80;;;23.90;67.20;;;;;;5072251;28;20649;-72
2023/02/23 04:58:01;;;;;;;14.00;2.73;;;23.90;66.30;;;;;;5069715;28;20262;-72
2023/02/23 05:00:30;;;;;;;14.87;2.47;;;23.80;66.60;;;;;;5072572;28;20269;-71
2023/02/23 05:02:57;;;;;;;7.27;1.73;;;23.80;65.70;;;;;;5071788;28;20228;-72
2023/02/23 05:05:25;;;;;;;10.97;2.57;;;23.50;66.10;;;;;;5070113;28;20249;-70
2023/02/23 05:07:53;;;;;;;11.73;2.17;;;23.40;67.10;;;;;;5066142;28;20240;-70
2023/02/23 05:10:21;;;;;;;15.33;2.70;;;23.30;67.00;;;;;;5071622;28;20310;-71
2023/02/23 05:12:48;;;;;;;12.37;2.23;;;23.30;68.30;;;;;;5067347;28;20179;-72
2023/02/23 05:15:15;;;;;;;13.63;2.33;;;23.20;67.70;;;;;;5070945;28;20278;-70
2023/02/23 05:17:43;;;;;;;11.13;2.23;;;23.00;66.00;;;;;;5072935;28;20187;-71
2023/02/23 05:20:12;;;;;;;15.30;2.63;;;22.90;66.80;;;;;;5072140;28;20191;-72
2023/02/23 05:22:40;;;;;;;9.17;1.57;;;22.80;66.00;;;;;;5069536;28;20321;-70
2023/02/23 05:25:08;;;;;;;14.23;2.67;;;22.80;66.30;;;;;;5061177;28;20277;-71
2023/02/23 05:27:36;;;;;;;7.63;2.17;;;22.80;65.70;;;;;;5065669;28;20772;-71
2023/02/23 05:30:06;;;;;;;11.90;2.30;;;22.90;65.60;;;;;;5070761;28;20677;-70
2023/02/23 05:32:34;;;;;;;13.13;2.17;;;22.90;66.30;;;;;;5068918;28;20328;-70
2023/02/23 05:35:02;;;;;;;12.43;2.40;;;23.10;65.70;;;;;;5069459;28;20411;-70
2023/02/23 05:37:29;;;;;;;14.33;2.03;;;23.10;65.10;;;;;;5071542;28;20213;-71
2023/02/23 05:39:56;;;;;;;11.77;2.10;;;23.10;64.40;;;;;;5065391;28;20190;-70
2023/02/23 05:42:24;;;;;;;13.67;2.73;;;23.30;64.80;;;;;;5070022;28;20457;-73
2023/02/23 05:44:51;;;;;;;9.53;2.43;;;23.80;63.60;;;;;;5070657;28;20175;-73
2023/02/23 05:47:18;;;;;;;11.87;2.77;;;24.10;62.60;;;;;;5071664;28;20712;-71
2023/02/23 05:49:46;;;;;;;12.40;2.10;;;24.20;61.40;;;;;;5070631;28;20222;-70
2023/02/23 05:52:13;;;;;;;11.10;2.53;;;24.40;60.70;;;;;;5070216;28;20638;-72
2023/02/23 05:54:40;;;;;;;8.33;2.10;;;24.60;60.30;;;;;;5067878;28;20183;-69
2023/02/23 05:57:08;;;;;;;12.30;2.20;;;24.30;60.60;;;;;;5071514;28;20191;-71
2023/02/23 05:59:35;;;;;;;17.60;2.57;;;24.10;61.50;;;;;;5067549;28;21002;-70
2023/02/23 06:02:05;;;;;;;12.63;2.23;;;23.80;61.30;;;;;;5065997;28;20191;-70
2023/02/23 06:04:34;;;;;;;12.03;2.13;;;23.60;62.40;;;;;;5070034;28;20788;-71
2023/02/23 06:07:01;;;;;;;12.43;2.70;;;23.40;62.50;;;;;;5069864;28;20203;-70
2023/02/23 06:09:28;;;;;;;7.37;1.80;;;23.30;62.50;;;;;;5067185;28;20933;-70
2023/02/23 06:11:58;;;;;;;10.47;2.07;;;23.30;62.00;;;;;;5067731;28;20187;-70
2023/02/23 06:14:25;;;;;;;9.93;1.97;;;23.20;62.50;;;;;;5068928;28;20191;-70
2023/02/23 06:16:53;;;;;;;7.80;1.67;;;23.10;62.30;;;;;;5065812;28;20482;-70
2023/02/23 06:19:20;;;;;;;17.00;2.17;;;23.00;62.50;;;;;;5067745;28;20207;-69
2023/02/23 06:21:47;;;;;;;12.17;1.90;;;22.80;63.40;;;;;;5069479;28;20183;-70
2023/02/23 06:24:15;;;;;;;14.87;2.20;;;22.80;64.30;;;;;;5069289;28;20882;-70
2023/02/23 06:26:42;;;;;;;7.90;2.10;;;22.80;64.20;;;;;;5068031;28;20187;-69
2023/02/23 06:29:10;;;;;;;11.27;2.27;;;22.70;64.80;;;;;;5067598;28;20294;-70
2023/02/23 06:31:38;;;;;;;12.80;1.97;;;22.80;64.40;;;;;;5067406;28;20187;-70
2023/02/23 06:34:05;;;;;;;11.67;2.30;;;22.80;63.80;;;;;;5068588;28;20650;-69
2023/02/23 06:36:33;;;;;;;11.07;2.70;;;22.80;64.10;;;;;;5066862;28;20175;-70
2023/02/23 06:39:00;;;;;;;13.40;2.00;;;22.80;64.30;;;;;;5070000;28;20182;-68
2023/02/23 06:41:28;;;;;;;9.37;1.53;;;22.80;65.00;;;;;;5058155;28;20176;-69
2023/02/23 06:43:55;;;;;;;13.40;2.37;;;22.90;64.20;;;;;;5063368;28;20191;-69
2023/02/23 06:46:23;;;;;;;13.50;2.27;;;22.80;64.60;;;;;;5061749;28;20228;-69
2023/02/23 06:48:54;;;;;;;14.37;2.33;;;22.80;64.20;;;;;;5062584;28;20267;-69
2023/02/23 06:51:22;;;;;;;13.80;2.47;;;22.80;64.30;;;;;;5067610;28;20195;-69
2023/02/23 06:53:51;;;;;;;8.13;1.87;;;22.70;63.20;;;;;;5068827;28;20238;-70
2023/02/23 06:56:19;;;;;;;11.67;2.17;;;22.70;64.10;;;;;;5069526;28;20181;-69
2023/02/23 06:58:46;;;;;;;7.63;1.80;;;22.80;63.00;;;;;;5068567;28;20704;-69
2023/02/23 07:01:14;;;;;;;14.40;2.80;;;22.80;64.00;;;;;;5065291;28;20197;-70
2023/02/23 07:03:42;;;;;;;7.80;2.10;;;22.80;64.00;;;;;;5065478;28;20178;-70
2023/02/23 07:06:09;;;;;;;12.00;2.07;;;22.80;63.90;;;;;;5068182;28;20318;-69
2023/02/23 07:08:37;;;;;;;13.73;2.30;;;22.90;63.80;;;;;;5068257;28;20175;-69
2023/02/23 07:11:14;;;;;;;17.33;2.50;;;23.20;63.50;;;;;;5066253;28;20202;-69
2023/02/23 07:13:42;;;;;;;9.33;2.00;;;23.00;62.60;;;;;;5064243;28;20251;-69
2023/02/23 07:16:09;;;;;;;9.17;2.13;;;23.80;61.20;;;;;;5067051;28;20206;-70
2023/02/23 07:18:37;;;;;;;11.60;2.30;;;23.60;60.40;;;;;;5057696;28;20317;-70
2023/02/23 07:21:04;;;;;;;12.30;2.13;;;23.30;61.50;;;;;;5060419;28;20221;-70
2023/02/23 07:23:32;;;;;;;13.37;2.07;;;23.20;61.70;;;;;;5064847;28;20183;-70
2023/02/23 07:25:59;;;;;;;9.80;2.57;;;23.00;62.00;;;;;;5065344;28;20182;-70
2023/02/23 07:28:27;;;;;;;10.07;2.10;;;22.80;63.10;;;;;;5064312;28;20202;-70
2023/02/23 07:30:58;;;;;;;9.83;2.13;;;22.70;63.40;;;;;;5089459;28;20234;-70
2023/02/23 07:33:26;;;;;;;8.63;2.10;;;22.60;63.20;;;;;;5063244;28;20246;-69
2023/02/23 07:35:53;;;;;;;9.90;2.30;;;22.50;62.90;;;;;;5065056;28;20201;-70
2023/02/23 07:38:20;;;;;;;10.70;2.07;;;22.40;63.70;;;;;;5062558;28;20186;-70
2023/02/23 07:40:50;;;;;;;8.07;1.80;;;22.40;63.00;;;;;;5065495;28;20184;-70
2023/02/23 07:43:21;;;;;;;9.23;2.10;;;22.30;63.50;;;;;;5064208;28;20180;-70
2023/02/23 07:45:50;;;;;;;5.47;1.80;;;22.30;63.60;;;;;;5070003;28;20753;-71
2023/02/23 07:48:18;;;;;;;10.87;2.40;;;22.20;63.70;;;;;;5063876;28;20215;-71
2023/02/23 07:50:46;;;;;;;6.20;1.60;;;22.20;64.00;;;;;;5067484;28;20223;-71
2023/02/23 07:53:14;;;;;;;18.23;2.27;;;22.10;63.40;;;;;;5067916;28;20202;-71
2023/02/23 07:55:41;;;;;;;10.43;2.00;;;22.10;63.60;;;;;;5067904;28;20237;-71
2023/02/23 07:58:09;;;;;;;11.93;2.30;;;22.00;62.90;;;;;;5069102;28;20207;-71
2023/02/23 08:00:38;;;;;;;8.30;1.73;;;22.00;63.10;;;;;;5068821;28;20186;-71
2023/02/23 08:03:06;;;;;;;8.50;1.80;;;22.00;62.70;;;;;;5074497;28;20650;-70
2023/02/23 08:05:35;;;;;;;8.03;1.87;;;22.00;62.50;;;;;;5067226;28;20219;-71
2023/02/23 08:08:02;;;;;;;10.13;2.07;;;21.90;63.10;;;;;;5074158;28;20191;-71
2023/02/23 08:10:30;;;;;;;5.43;1.80;;;21.90;63.00;;;;;;5071922;28;20304;-71
2023/02/23 08:12:58;;;;;;;6.73;1.80;;;21.90;63.10;;;;;;5071875;28;20627;-71
2023/02/23 08:15:26;;;;;;;8.57;2.03;;;21.80;62.90;;;;;;5073865;28;20581;-71
2023/02/23 08:17:53;;;;;;;11.83;2.20;;;21.80;62.70;;;;;;5073562;28;20262;-70
2023/02/23 08:20:20;;;;;;;7.53;2.17;;;21.80;62.80;;;;;;5072009;28;21481;-70
2023/02/23 08:22:52;;;;;;;10.83;2.33;;;21.80;62.70;;;;;;5072148;28;20268;-70
2023/02/23 08:25:19;;;;;;;8.50;2.53;;;21.80;63.00;;;;;;5070070;28;20182;-71
2023/02/23 08:27:47;;;;;;;15.27;2.43;;;21.80;63.40;;;;;;5073523;28;20171;-71
2023/02/23 08:30:15;;;;;;;8.87;1.90;;;21.80;63.20;;;;;;5074003;28;20222;-71
2023/02/23 08:32:42;;;;;;;9.23;2.27;;;21.80;63.10;;;;;;5070193;28;20186;-70
2023/02/23 08:35:10;;;;;;;10.17;2.03;;;21.80;63.50;;;;;;5067869;28;20188;-70
2023/02/23 08:37:38;;;;;;;7.70;2.30;;;21.80;63.30;;;;;;5074503;28;20876;-71
2023/02/23 08:40:06;;;;;;;11.50;2.10;;;21.80;63.50;;;;;;5072097;28;20261;-71
2023/02/23 08:42:34;;;;;;;7.30;1.93;;;21.70;63.40;;;;;;5064295;28;20183;-70
2023/02/23 08:45:01;;;;;;;10.33;2.03;;;21.70;63.50;;;;;;5065485;28;20194;-70
2023/02/23 08:47:28;;;;;;;8.73;1.83;;;21.60;63.70;;;;;;5070095;28;20976;-70
2023/02/23 08:49:56;;;;;;;14.80;2.77;;;21.60;64.10;;;;;;5068390;28;20231;-71
2023/02/23 08:52:24;;;;;;;8.90;2.40;;;21.60;63.80;;;;;;5071218;28;20266;-70
2023/02/23 08:54:51;;;;;;;9.97;2.60;;;21.50;64.10;;;;;;5071242;28;20187;-71
2023/02/23 08:57:19;;;;;;;10.87;1.97;;;21.50;64.20;;;;;;5070188;28;20194;-71
2023/02/23 08:59:46;;;;;;;7.43;2.03;;;21.50;64.60;;;;;;5067705;28;20266;-71
2023/02/23 09:02:14;;;;;;;7.30;1.60;;;21.40;64.30;;;;;;5068493;28;20233;-72
2023/02/23 09:04:42;;;;;;;8.53;1.70;;;21.40;64.70;;;;;;5063277;28;20306;-73
2023/02/23 09:07:18;;;;;;;6.93;2.00;;;21.40;64.60;;;;;;5067912;28;20282;-71
2023/02/23 09:09:46;;;;;;;8.83;2.30;;;21.30;64.70;;;;;;5067649;28;20296;-71
2023/02/23 09:12:13;;;;;;;11.03;2.50;;;21.30;65.20;;;;;;5069965;28;20179;-71
2023/02/23 09:14:40;;;;;;;12.93;2.07;;;21.30;65.10;;;;;;5067341;28;20642;-70
2023/02/23 09:17:08;;;;;;;8.43;2.27;;;21.20;65.10;;;;;;5068326;28;20261;-71
2023/02/23 09:19:35;;;;;;;10.77;1.97;;;21.20;65.10;;;;;;5068617;28;20183;-69
2023/02/23 09:22:02;;;;;;;11.07;2.17;;;21.20;64.50;;;;;;5069140;28;20270;-68
2023/02/23 09:24:31;;;;;;;9.93;2.30;;;21.20;64.30;;;;;;5070100;28;20175;-70
2023/02/23 09:26:58;;;;;;;9.83;2.53;;;21.20;64.10;;;;;;5068608;28;20600;-69
2023/02/23 09:29:26;;;;;;;7.53;2.17;;;21.20;64.50;;;;;;5071255;28;20291;-70
2023/02/23 09:31:56;;;;;;;7.63;1.80;;;21.10;64.50;;;;;;5067272;28;20933;-69
2023/02/23 09:34:25;;;;;;;5.67;1.73;;;21.10;64.50;;;;;;5071241;28;20191;-69
2023/02/23 09:36:54;;;;;;;9.27;2.07;;;21.10;64.50;;;;;;5064797;28;20176;-69
2023/02/23 09:39:21;;;;;;;9.43;2.23;;;21.20;64.60;;;;;;5070185;28;20276;-69
2023/02/23 09:42:13;;;;;;;7.33;2.27;;;21.20;64.40;;;;;;5071481;28;20542;-69
2023/02/23 09:44:55;;;;;;;9.90;2.27;;;21.10;64.50;;;;;;5069671;28;20179;-69
2023/02/23 09:47:45;;;;;;;10.03;2.33;;;21.10;64.70;;;;;;5069590;28;20186;-69
2023/02/23 09:50:24;;;;;;;9.87;2.20;;;21.10;64.50;;;;;;5067293;28;20658;-71
2023/02/23 09:53:02;;;;;;;8.60;2.27;;;21.10;64.60;;;;;;5069539;28;20594;-70
2023/02/23 09:55:30;;;;;;;10.73;2.30;;;21.00;64.90;;;;;;5071449;28;20279;-70
2023/02/23 09:58:05;;;;;;;9.27;2.17;;;21.00;65.00;;;;;;5072623;28;21052;-69
2023/02/23 10:00:44;;;;;;;7.63;2.17;;;21.00;65.40;;;;;;5062201;28;20183;-69
2023/02/23 10:03:37;;;;;;;7.73;2.00;;;20.90;65.80;;;;;;5066734;28;20180;-70
2023/02/23 10:06:08;;;;;;;8.47;1.93;;;20.90;66.30;;;;;;5056200;28;20199;-70
2023/02/23 10:08:38;;;;;;;12.63;2.80;;;20.80;66.50;;;;;;5069897;28;20175;-70
2023/02/23 10:11:24;;;;;;;9.83;2.03;;;20.80;66.90;;;;;;5064496;28;20211;-70
2023/02/23 10:14:08;;;;;;;8.20;1.90;;;20.70;67.20;;;;;;5068375;28;20187;-71
2023/02/23 10:17:16;;;;;;;8.90;1.80;;;20.70;67.80;;;;;;5068215;28;20218;-70
2023/02/23 10:19:47;;;;;;;12.43;1.97;;;20.60;68.20;;;;;;5068002;28;20727;-70
2023/02/23 10:22:15;;;;;;;8.43;2.03;;;20.50;68.70;;;;;;5062044;28;20175;-70
2023/02/23 10:24:50;;;;;;;8.13;2.10;;;20.40;68.60;;;;;;5069832;28;20191;-70
2023/02/23 10:27:20;;;;;;;7.90;1.97;;;20.40;69.00;;;;;;5069454;28;20198;-69
2023/02/23 10:29:56;;;;;;;10.40;2.03;;;20.30;69.10;;;;;;5069741;28;20286;-70
2023/02/23 10:32:50;;;;;;;9.13;2.27;;;20.30;69.20;;;;;;5066218;28;20178;-70
2023/02/23 10:35:20;;;;;;;8.63;1.87;;;20.20;69.70;;;;;;5066120;28;20187;-70
2023/02/23 10:37:48;;;;;;;10.50;2.57;;;20.10;69.80;;;;;;5061037;28;20282;-70
2023/02/23 10:40:26;;;;;;;10.73;2.10;;;20.10;69.80;;;;;;5064383;28;20208;-70
2023/02/23 10:42:59;;;;;;;10.00;2.07;;;20.10;69.80;;;;;;5069291;28;20274;-69
2023/02/23 10:45:28;;;;;;;10.50;2.47;;;20.20;69.40;;;;;;5065533;28;20194;-70
2023/02/23 10:48:06;;;;;;;8.73;2.00;;;20.30;69.10;;;;;;5069391;28;20652;-70
2023/02/23 10:50:37;;;;;;;12.07;2.33;;;20.30;69.40;;;;;;5067390;28;20272;-70
2023/02/23 10:53:21;;;;;;;9.77;1.70;;;20.30;69.60;;;;;;5062403;28;20183;-70
2023/02/23 10:56:06;;;;;;;9.50;2.17;;;20.30;69.90;;;;;;5066512;28;20936;-69
2023/02/23 10:58:57;;;;;;;9.33;2.03;;;20.30;70.10;;;;;;5065635;28;20172;-68
2023/02/23 11:01:45;;;;;;;7.77;2.23;;;20.30;69.90;;;;;;5065732;28;20179;-70
2023/02/23 11:04:30;;;;;;;6.10;2.10;;;20.30;69.90;;;;;;5065130;28;20701;-69
2023/02/23 11:07:30;;;;;;;8.07;1.93;;;20.20;70.00;;;;;;5067872;28;20659;-69
2023/02/23 11:10:12;;;;;;;6.87;1.90;;;20.20;70.70;;;;;;5053141;28;20246;-69
2023/02/23 11:12:40;;;;;;;8.83;1.90;;;20.10;70.70;;;;;;5066931;28;20304;-69
2023/02/23 11:15:30;;;;;;;11.20;2.00;;;20.10;70.70;;;;;;5067467;28;20222;-69
2023/02/23 11:17:59;;;;;;;10.53;1.97;;;20.00;71.40;;;;;;5070144;28;20571;-70
2023/02/23 11:20:34;;;;;;;8.80;2.10;;;19.90;71.70;;;;;;5068441;28;20184;-70
2023/02/23 11:23:16;;;;;;;9.53;2.30;;;19.90;72.00;;;;;;5069700;28;20278;-70
2023/02/23 11:25:44;;;;;;;6.57;2.23;;;19.90;71.80;;;;;;5069590;28;20182;-70
2023/02/23 11:28:29;;;;;;;10.67;2.23;;;20.00;71.90;;;;;;5069765;28;20184;-70
2023/02/23 11:31:11;;;;;;;10.27;2.70;;;20.00;71.80;;;;;;5071883;28;20278;-70
2023/02/23 11:33:39;;;;;;;9.93;2.20;;;20.20;71.40;;;;;;5068437;28;20646;-70
2023/02/23 11:36:17;;;;;;;13.40;2.47;;;20.30;72.30;;;;;;5071866;28;20199;-70
2023/02/23 11:38:47;;;;;;;9.60;1.80;;;20.40;72.70;;;;;;5075500;28;20183;-70
2023/02/23 11:41:23;;;;;;;8.47;1.80;;;20.40;72.50;;;;;;5072440;28;20226;-70
2023/02/23 11:43:55;;;;;;;8.73;2.07;;;20.50;72.80;;;;;;5077260;28;20771;-70
2023/02/23 11:46:23;;;;;;;8.80;2.23;;;20.50;72.60;;;;;;5075993;28;20257;-71
2023/02/23 11:49:13;;;;;;;7.33;1.87;;;20.50;71.70;;;;;;5068277;28;20653;-70
2023/02/23 11:51:47;;;;;;;7.00;1.80;;;20.60;70.70;;;;;;5074380;28;20663;-70
2023/02/23 11:54:34;;;;;;;8.37;1.90;;;20.60;70.30;;;;;;5076522;28;20199;-70
2023/02/23 11:57:02;;;;;;;7.40;1.50;;;20.70;69.90;;;;;;5067385;28;20180;-70
2023/02/23 11:59:47;;;;;;;6.93;1.67;;;20.70;69.30;;;;;;5068261;28;20187;-70
2023/02/23 12:02:25;;;;;;;11.27;2.00;;;20.70;68.90;;;;;;5070148;28;20630;-70
2023/02/23 12:05:06;;;;;;;6.20;1.60;;;20.70;68.40;;;;;;5073667;28;20227;-70
2023/02/23 12:08:01;;;;;;;6.77;1.80;;;20.80;67.80;;;;;;5070729;28;20186;-70
2023/02/23 12:10:49;;;;;;;8.43;1.80;;;20.80;68.00;;;;;;5063139;28;20230;-70
2023/02/23 12:13:28;;;;;;;8.47;2.10;;;20.80;67.40;;;;;;5069312;28;20176;-70
2023/02/23 12:16:22;;;;;;;8.10;1.70;;;20.80;67.10;;;;;;5071535;28;20223;-70
2023/02/23 12:18:59;;;;;;;7.77;1.77;;;20.70;67.50;;;;;;5072776;28;20184;-70
2023/02/23 12:21:43;;;;;;;8.30;1.70;;;20.70;67.50;;;;;;5072951;28;20187;-70
2023/02/23 12:24:13;;;;;;;7.70;1.83;;;20.60;67.50;;;;;;5067809;28;20183;-70
2023/02/23 12:27:05;;;;;;;7.93;1.73;;;20.60;67.40;;;;;;5071746;28;20206;-71
2023/02/23 12:29:39;;;;;;;11.67;1.70;;;20.60;67.90;;;;;;5070692;28;20881;-70
2023/02/23 12:32:17;;;;;;;10.27;2.00;;;20.50;68.00;;;;;;5073369;28;20202;-70
2023/02/23 12:34:50;;;;;;;7.60;1.90;;;20.50;68.10;;;;;;5073120;28;20179;-70
2023/02/23 12:37:29;;;;;;;4.07;1.47;;;20.50;68.20;;;;;;5073724;28;20258;-71
2023/02/23 12:40:24;;;;;;;6.17;1.87;;;20.50;68.20;;;;;;5065482;28;20195;-70
2023/02/23 12:42:55;;;;;;;7.87;1.93;;;20.40;68.70;;;;;;5069623;28;20187;-70
2023/02/23 12:45:32;;;;;;;8.10;1.60;;;20.40;68.30;;;;;;5077469;28;20180;-70
2023/02/23 12:48:28;;;;;;;9.07;2.10;;;20.30;68.50;;;;;;5070528;28;20229;-69
2023/02/23 12:51:03;;;;;;;12.43;2.20;;;20.40;68.30;;;;;;5070721;28;20294;-70
2023/02/23 12:53:44;;;;;;;9.57;1.80;;;20.40;68.30;;;;;;5067754;28;20182;-70
2023/02/23 12:56:48;;;;;;;7.43;1.40;;;20.40;67.90;;;;;;5071717;28;20226;-70
2023/02/23 12:59:15;;;;;;;8.77;2.03;;;20.40;68.00;;;;;;5072800;28;20186;-70
2023/02/23 13:02:10;;;;;;;7.67;1.53;;;20.40;68.00;;;;;;5071937;28;20182;-70
2023/02/23 13:04:50;;;;;;;7.87;1.73;;;20.40;68.10;;;;;;5066803;28;20215;-70
2023/02/23 13:07:46;;;;;;;8.00;1.87;;;20.30;68.40;;;;;;5072754;28;20182;-70
2023/02/23 13:10:22;;;;;;;6.90;1.93;;;20.30;68.80;;;;;;5055949;28;20253;-70
2023/02/23 13:13:00;;;;;;;9.30;2.53;;;20.30;68.90;;;;;;5069618;28;20240;-70
2023/02/23 13:15:52;;;;;;;8.47;1.83;;;20.30;68.90;;;;;;5073237;28;20171;-69
2023/02/23 13:18:26;;;;;;;7.10;2.00;;;20.30;68.70;;;;;;5074219;28;20635;-69
2023/02/23 13:21:02;;;;;;;6.67;1.60;;;20.30;68.80;;;;;;5075620;28;20182;-70
2023/02/23 13:24:15;;;;;;;8.60;1.77;;;20.20;68.90;;;;;;5072411;28;20200;-70
2023/02/23 13:26:59;;;;;;;5.30;1.50;;;20.30;68.90;;;;;;5030176;28;20191;-69
2023/02/23 13:29:30;;;;;;;6.10;1.60;;;20.30;68.90;;;;;;5028140;28;20207;-70
2023/02/23 13:32:00;;;;;;;8.53;1.70;;;20.30;68.70;;;;;;5059567;28;20274;-70
2023/02/23 13:34:38;;;;;;;7.27;1.73;;;20.30;68.60;;;;;;5074686;28;20180;-70
2023/02/23 13:37:07;;;;;;;9.60;1.80;;;20.30;68.60;;;;;;5072412;28;20179;-69
2023/02/23 13:39:56;;;;;;;11.00;1.57;;;20.30;67.70;;;;;;5069346;28;20191;-69
2023/02/23 13:42:35;;;;;;;8.30;1.63;;;20.40;68.00;;;;;;5072338;28;20532;-69
2023/02/23 13:45:31;;;;;;;5.10;1.60;;;20.40;67.10;;;;;;5070706;28;20262;-70
2023/02/23 13:48:35;;;;;;;9.37;2.00;;;20.40;67.30;;;;;;5070065;28;20202;-69
2023/02/23 13:51:26;;;;;;;7.30;1.80;;;20.40;67.70;;;;;;5072748;28;20282;-70
2023/02/23 13:54:25;;;;;;;6.67;1.70;;;20.30;67.90;;;;;;5072523;28;20243;-69
2023/02/23 13:56:58;;;;;;;5.87;1.40;;;20.30;68.20;;;;;;5072043;28;20214;-70
2023/02/23 13:59:42;;;;;;;7.83;1.40;;;20.30;68.30;;;;;;5071637;28;20176;-70
2023/02/23 14:02:19;;;;;;;9.13;1.47;;;20.20;68.10;;;;;;5074074;28;20641;-71
2023/02/23 14:04:46;;;;;;;9.57;1.53;;;20.20;68.40;;;;;;5068744;28;20672;-69
2023/02/23 14:07:23;;;;;;;7.20;1.63;;;20.10;68.30;;;;;;5070729;28;20237;-70
2023/02/23 14:09:57;;;;;;;8.67;1.67;;;20.10;68.10;;;;;;5067220;28;20299;-69
2023/02/23 14:12:40;;;;;;;4.97;1.50;;;20.00;68.30;;;;;;5071263;28;20248;-70
2023/02/23 14:15:28;;;;;;;5.27;1.37;;;19.90;68.40;;;;;;5069390;28;20194;-71
2023/02/23 14:18:01;;;;;;;7.00;1.30;;;19.80;68.90;;;;;;5072619;28;20333;-71
2023/02/23 14:20:47;;;;;;;5.00;1.47;;;19.80;68.60;;;;;;5068417;28;20193;-69
2023/02/23 14:23:55;;;;;;;6.57;1.60;;;19.70;68.50;;;;;;5071326;28;20285;-70
2023/02/23 14:26:28;;;;;;;6.03;1.23;;;19.60;68.50;;;;;;5054915;28;20191;-70
2023/02/23 14:29:26;;;;;;;6.53;1.50;;;19.50;69.00;;;;;;5071528;28;20645;-70
2023/02/23 14:32:21;;;;;;;6.40;1.47;;;19.40;69.30;;;;;;5075410;28;20201;-70
2023/02/23 14:34:58;;;;;;;3.77;1.40;;;19.30;69.50;;;;;;5068251;28;20179;-70
2023/02/23 14:37:35;;;;;;;11.13;1.97;;;19.20;69.90;;;;;;5071228;28;20164;-70